Time;durP1;ratioP1;P1;durP2;ratioP2;P2;SDS_P1;SDS_P2;PMS_P1;PMS_P2;Temp;Humidity;BMP_temperature;BMP_pressure;BME280_temperature;BME280_humidity;BME280_pressure;Samples;Min_cycle;Max_cycle;Signal;HPM_P1;HPM_P2
2021/03/07 00:01:11;;;;;;;17.00;9.52;;;0.60;61.00;;;;;;5001742;28;20027;-66
2021/03/07 00:03:37;;;;;;;17.38;8.95;;;0.60;61.10;;;;;;4999240;28;20041;-66
2021/03/07 00:06:02;;;;;;;17.10;9.40;;;0.50;61.30;;;;;;5001629;28;20498;-66
2021/03/07 00:08:37;;;;;;;13.18;8.05;;;0.50;61.30;;;;;;5000034;28;20038;-66
2021/03/07 00:11:07;;;;;;;;;;;0.50;61.60;;;;;;4999834;28;20038;-66
2021/03/07 00:13:35;;;;;;;15.07;8.27;;;0.50;61.90;;;;;;5003152;28;20376;-66
2021/03/07 00:16:03;;;;;;;14.43;7.53;;;0.50;61.30;;;;;;4998067;28;20050;-66
2021/03/07 00:18:31;;;;;;;15.13;7.85;;;0.50;61.30;;;;;;5001685;28;20030;-66
2021/03/07 00:20:58;;;;;;;12.48;7.55;;;0.40;61.30;;;;;;5000999;28;20049;-66
2021/03/07 00:23:29;;;;;;;12.23;7.57;;;0.50;61.50;;;;;;5001433;28;20038;-63
2021/03/07 00:25:59;;;;;;;10.90;6.90;;;0.40;61.50;;;;;;4999266;28;20038;-66
2021/03/07 00:28:27;;;;;;;12.88;7.65;;;0.40;61.40;;;;;;5004857;28;20026;-66
2021/03/07 00:30:55;;;;;;;11.00;6.40;;;0.40;61.40;;;;;;4999551;28;20030;-66
2021/03/07 00:33:22;;;;;;;11.63;6.40;;;0.40;61.40;;;;;;5006921;28;20568;-66
2021/03/07 00:35:51;;;;;;;13.55;7.18;;;0.40;61.40;;;;;;5001741;28;20069;-65
2021/03/07 00:38:16;;;;;;;12.48;7.30;;;0.40;61.40;;;;;;5000345;28;20034;-66
2021/03/07 00:40:42;;;;;;;13.90;6.88;;;0.40;61.30;;;;;;4999844;28;20449;-66
2021/03/07 00:43:11;;;;;;;11.65;6.78;;;0.40;61.40;;;;;;5001041;28;20437;-66
2021/03/07 00:45:39;;;;;;;10.82;6.55;;;0.40;61.40;;;;;;5000353;28;20035;-66
2021/03/07 00:48:07;;;;;;;9.75;6.47;;;0.40;61.40;;;;;;4999401;28;20030;-65
2021/03/07 00:50:32;;;;;;;10.65;6.57;;;0.30;61.40;;;;;;4997999;28;20034;-66
2021/03/07 00:53:01;;;;;;;12.18;6.85;;;0.30;61.30;;;;;;4999541;28;20065;-66
2021/03/07 00:55:29;;;;;;;12.77;6.70;;;0.30;61.30;;;;;;5001914;28;20026;-65
2021/03/07 00:57:56;;;;;;;13.90;7.03;;;0.20;61.40;;;;;;5013766;28;20186;-65
2021/03/07 01:00:28;;;;;;;11.65;6.68;;;0.30;61.50;;;;;;5000683;28;20129;-66
2021/03/07 01:02:56;;;;;;;10.18;6.38;;;0.30;61.50;;;;;;5001789;28;20038;-66
2021/03/07 01:05:26;;;;;;;15.00;7.20;;;0.30;61.50;;;;;;5000478;28;20577;-66
2021/03/07 01:07:54;;;;;;;11.30;7.13;;;0.30;61.60;;;;;;5002507;28;20531;-65
2021/03/07 01:10:28;;;;;;;13.63;7.20;;;0.30;61.60;;;;;;4999001;28;20579;-65
2021/03/07 01:12:54;;;;;;;14.35;7.35;;;0.40;61.60;;;;;;4997740;28;20119;-66
2021/03/07 01:15:28;;;;;;;12.35;7.05;;;0.30;61.50;;;;;;5000704;28;20553;-65
2021/03/07 01:17:54;;;;;;;10.98;6.43;;;0.40;61.50;;;;;;5007145;28;20049;-66
2021/03/07 01:20:23;;;;;;;8.98;6.22;;;0.40;61.40;;;;;;5000288;28;20046;-70
2021/03/07 01:22:54;;;;;;;10.52;6.45;;;0.40;61.50;;;;;;4999441;28;20034;-66
2021/03/07 01:25:27;;;;;;;10.57;6.38;;;0.40;61.60;;;;;;5000246;28;20038;-65
2021/03/07 01:27:55;;;;;;;9.55;6.40;;;0.40;61.60;;;;;;5013353;28;20509;-66
2021/03/07 01:30:25;;;;;;;10.50;6.45;;;0.40;61.60;;;;;;4995698;28;20041;-67
2021/03/07 01:32:55;;;;;;;10.65;6.05;;;0.40;61.50;;;;;;5000314;28;20042;-65
2021/03/07 01:35:29;;;;;;;10.75;6.20;;;0.40;61.60;;;;;;4999215;28;20044;-66
2021/03/07 01:37:55;;;;;;;10.40;6.20;;;0.40;61.60;;;;;;4999635;28;20049;-66
2021/03/07 01:40:29;;;;;;;18.05;8.40;;;0.50;61.60;;;;;;5003829;28;20030;-65
2021/03/07 01:42:56;;;;;;;;;;;0.40;61.60;;;;;;5001429;28;20125;-66
2021/03/07 01:45:24;;;;;;;21.63;11.02;;;0.50;61.90;;;;;;4997956;28;20364;-65
2021/03/07 01:47:54;;;;;;;18.38;10.18;;;0.50;62.20;;;;;;4998875;28;20084;-64
2021/03/07 01:50:28;;;;;;;20.52;10.48;;;0.40;61.40;;;;;;4999719;28;20034;-63
2021/03/07 01:52:57;;;;;;;17.80;9.60;;;0.40;61.50;;;;;;5000564;28;20041;-64
2021/03/07 01:55:34;;;;;;;18.83;10.32;;;0.40;61.60;;;;;;4997802;28;20394;-64
2021/03/07 01:58:34;;;;;;;18.90;10.63;;;0.30;61.60;;;;;;5004278;28;20042;-64
2021/03/07 02:01:02;;;;;;;15.63;9.20;;;0.30;61.80;;;;;;4995920;28;20050;-66
2021/03/07 02:03:30;;;;;;;14.50;7.75;;;0.20;61.60;;;;;;4999038;28;20147;-65
2021/03/07 02:05:56;;;;;;;12.95;8.10;;;0.20;61.70;;;;;;4999160;28;20042;-66
2021/03/07 02:08:24;;;;;;;13.13;8.00;;;0.10;61.80;;;;;;5005475;28;20121;-66
2021/03/07 02:10:59;;;;;;;13.18;7.20;;;0.10;61.80;;;;;;4995144;28;20039;-66
2021/03/07 02:13:31;;;;;;;14.65;7.72;;;0.10;62.00;;;;;;4998489;28;20435;-66
2021/03/07 02:16:04;;;;;;;12.32;7.68;;;0.00;61.80;;;;;;4996775;28;20035;-66
2021/03/07 02:18:34;;;;;;;15.98;7.63;;;0.00;62.00;;;;;;4996706;28;20109;-64
2021/03/07 02:21:18;;;;;;;12.50;7.38;;;-0.10;62.00;;;;;;5000219;28;20042;-66
2021/03/07 02:23:55;;;;;;;15.80;8.27;;;-0.10;62.10;;;;;;4997179;28;20038;-66
2021/03/07 02:26:24;;;;;;;13.85;8.02;;;-0.10;62.40;;;;;;4998548;28;20038;-67
2021/03/07 02:28:55;;;;;;;15.23;9.00;;;-0.20;62.20;;;;;;5000359;28;20115;-66
2021/03/07 02:31:28;;;;;;;14.77;9.75;;;-0.20;62.30;;;;;;4996413;28;20149;-66
2021/03/07 02:34:14;;;;;;;16.67;10.45;;;-0.30;62.20;;;;;;4998701;28;20125;-66
2021/03/07 02:36:51;;;;;;;15.52;9.60;;;-0.30;62.50;;;;;;4997285;28;20048;-65
2021/03/07 02:39:23;;;;;;;14.15;8.45;;;-0.40;62.40;;;;;;5012955;28;20031;-66
2021/03/07 02:41:51;;;;;;;16.17;8.25;;;-0.40;62.30;;;;;;4999522;28;20058;-66
2021/03/07 02:44:22;;;;;;;13.80;7.97;;;-0.50;62.30;;;;;;4999363;28;20042;-66
2021/03/07 02:46:51;;;;;;;12.82;8.25;;;-0.50;62.50;;;;;;4996068;28;20778;-65
2021/03/07 02:49:18;;;;;;;13.75;8.07;;;-0.60;62.50;;;;;;4998036;28;20418;-66
2021/03/07 02:51:49;;;;;;;14.35;7.93;;;-0.60;62.50;;;;;;4998984;28;20033;-66
2021/03/07 02:54:19;;;;;;;12.73;7.70;;;-0.60;62.70;;;;;;4995640;28;20065;-66
2021/03/07 02:56:51;;;;;;;13.80;7.68;;;-0.70;62.80;;;;;;4997918;28;20137;-66
2021/03/07 02:59:22;;;;;;;14.38;6.75;;;-0.70;63.00;;;;;;4998736;28;20137;-66
2021/03/07 03:01:53;;;;;;;15.48;7.63;;;-0.80;63.00;;;;;;4999284;28;20037;-66
2021/03/07 03:04:24;;;;;;;12.30;6.78;;;-0.80;63.20;;;;;;4999486;28;20073;-66
2021/03/07 03:06:57;;;;;;;12.90;7.20;;;-0.80;63.30;;;;;;5003125;28;20578;-66
2021/03/07 03:09:25;;;;;;;13.52;6.88;;;-0.80;63.30;;;;;;4998671;28;20095;-66
2021/03/07 03:11:55;;;;;;;11.13;7.10;;;-0.80;63.30;;;;;;4996666;28;20648;-64
2021/03/07 03:14:27;;;;;;;12.20;7.20;;;-0.80;63.30;;;;;;4998619;28;20046;-64
2021/03/07 03:16:58;;;;;;;12.10;7.20;;;-0.80;63.30;;;;;;5001153;28;20034;-63
2021/03/07 03:19:29;;;;;;;14.48;6.82;;;-0.80;63.30;;;;;;4998430;28;20079;-64
2021/03/07 03:21:55;;;;;;;12.10;7.15;;;-0.80;63.30;;;;;;4998679;28;20034;-63
2021/03/07 03:24:23;;;;;;;11.82;7.22;;;-0.80;63.30;;;;;;4999046;28;20041;-65
2021/03/07 03:26:50;;;;;;;11.52;6.88;;;-0.80;63.30;;;;;;4996759;28;20590;-64
2021/03/07 03:29:21;;;;;;;11.40;7.10;;;-0.90;63.30;;;;;;4996536;28;20049;-64
2021/03/07 03:31:54;;;;;;;12.45;7.32;;;-0.90;63.40;;;;;;5000287;28;20034;-64
2021/03/07 03:34:20;;;;;;;12.48;7.35;;;-0.90;63.50;;;;;;4998980;28;20152;-65
2021/03/07 03:36:48;;;;;;;11.65;6.25;;;-0.90;63.50;;;;;;4999450;28;20121;-62
2021/03/07 03:39:22;;;;;;;14.90;7.18;;;-0.90;63.50;;;;;;5002696;28;20034;-64
2021/03/07 03:41:55;;;;;;;14.43;7.53;;;-0.90;63.70;;;;;;5001406;28;20039;-64
2021/03/07 03:44:27;;;;;;;11.10;6.93;;;-0.90;63.70;;;;;;4999230;28;20592;-65
2021/03/07 03:46:57;;;;;;;13.10;7.20;;;-1.00;63.50;;;;;;5001747;28;20069;-65
2021/03/07 03:49:28;;;;;;;12.77;7.15;;;-1.00;63.70;;;;;;5000303;28;20059;-64
2021/03/07 03:52:00;;;;;;;12.88;7.50;;;-1.00;63.80;;;;;;5000302;28;20516;-64
2021/03/07 03:54:34;;;;;;;13.98;8.15;;;-1.10;63.90;;;;;;5007777;28;20065;-64
2021/03/07 03:57:02;;;;;;;13.35;7.60;;;-1.10;63.90;;;;;;5000788;28;20513;-64
2021/03/07 03:59:33;;;;;;;15.07;7.93;;;-1.10;64.00;;;;;;5002663;28;20042;-64
2021/03/07 04:02:02;;;;;;;15.52;8.25;;;-1.20;64.00;;;;;;5000143;28;20521;-64
2021/03/07 04:04:29;;;;;;;16.08;8.35;;;-1.20;64.20;;;;;;4999580;28;20640;-63
2021/03/07 04:06:57;;;;;;;13.43;7.97;;;-1.20;64.30;;;;;;5001231;28;20038;-65
2021/03/07 04:09:23;;;;;;;14.90;8.60;;;-1.20;64.60;;;;;;5000681;28;20045;-64
2021/03/07 04:11:49;;;;;;;14.05;8.77;;;-1.30;64.60;;;;;;5000014;28;20030;-64
2021/03/07 04:14:18;;;;;;;13.60;8.10;;;-1.30;64.80;;;;;;5001508;28;20040;-64
2021/03/07 04:16:48;;;;;;;13.75;7.45;;;-1.20;65.20;;;;;;4999027;28;20048;-64
2021/03/07 04:19:17;;;;;;;373.95;107.70;;;-1.20;65.30;;;;;;5007309;28;20137;-63
2021/03/07 04:21:45;;;;;;;50.00;20.25;;;-1.20;65.40;;;;;;4999838;28;20037;-64
2021/03/07 04:24:14;;;;;;;22.73;10.20;;;-1.10;65.50;;;;;;5000944;28;20034;-64
2021/03/07 04:26:40;;;;;;;14.35;8.23;;;-1.10;65.50;;;;;;5000993;28;20040;-64
2021/03/07 04:29:08;;;;;;;15.85;7.80;;;-1.00;65.40;;;;;;4997754;28;22029;-64
2021/03/07 04:31:35;;;;;;;12.60;7.20;;;-1.00;65.40;;;;;;5007232;28;20026;-64
2021/03/07 04:34:01;;;;;;;13.52;7.60;;;-1.00;65.40;;;;;;5000799;28;20034;-64
2021/03/07 04:36:27;;;;;;;13.07;8.05;;;-1.00;65.40;;;;;;4999347;28;20052;-64
2021/03/07 04:38:54;;;;;;;12.07;7.15;;;-1.00;65.40;;;;;;5007162;28;20034;-63
2021/03/07 04:41:20;;;;;;;14.32;7.80;;;-1.00;65.40;;;;;;5001584;28;20050;-64
2021/03/07 04:43:52;;;;;;;11.02;6.78;;;-1.00;65.40;;;;;;5000787;28;20453;-64
2021/03/07 04:46:22;;;;;;;11.57;6.90;;;-1.00;65.70;;;;;;5000116;28;20034;-64
2021/03/07 04:48:50;;;;;;;13.60;7.72;;;-1.00;65.70;;;;;;5005907;28;20439;-64
2021/03/07 04:51:19;;;;;;;15.80;8.40;;;-1.00;65.80;;;;;;5000652;28;20038;-63
2021/03/07 04:53:47;;;;;;;14.40;7.47;;;-0.90;66.00;;;;;;5000550;28;20040;-64
2021/03/07 04:56:16;;;;;;;19.52;10.00;;;-0.80;66.00;;;;;;4999576;28;20046;-64
2021/03/07 04:58:48;;;;;;;20.20;10.40;;;-0.80;66.00;;;;;;5001212;28;20042;-64
2021/03/07 05:01:16;;;;;;;14.98;9.07;;;-0.70;66.10;;;;;;5014432;28;20034;-64
2021/03/07 05:03:44;;;;;;;11.95;7.72;;;-0.70;66.00;;;;;;5001947;28;20022;-64
2021/03/07 05:06:11;;;;;;;14.15;8.40;;;-0.60;66.00;;;;;;4999605;28;20026;-64
2021/03/07 05:08:39;;;;;;;16.88;9.15;;;-0.60;65.90;;;;;;5000187;28;20061;-64
2021/03/07 05:11:05;;;;;;;15.30;9.45;;;-0.50;65.90;;;;;;4998406;28;20031;-64
2021/03/07 05:13:35;;;;;;;15.98;9.30;;;-0.50;65.70;;;;;;4997830;28;20409;-64
2021/03/07 05:16:01;;;;;;;16.20;8.68;;;-0.50;65.60;;;;;;4997933;28;20042;-64
2021/03/07 05:18:29;;;;;;;14.82;8.05;;;-0.50;65.50;;;;;;4999906;28;20405;-64
2021/03/07 05:20:55;;;;;;;14.25;8.20;;;-0.50;65.60;;;;;;4999708;28;20034;-65
2021/03/07 05:23:23;;;;;;;15.80;8.25;;;-0.40;65.60;;;;;;4998690;28;20401;-65
2021/03/07 05:25:51;;;;;;;13.95;8.32;;;-0.40;65.50;;;;;;4999873;28;20038;-62
2021/03/07 05:28:21;;;;;;;12.50;7.18;;;-0.40;65.60;;;;;;4997872;28;20114;-65
2021/03/07 05:30:52;;;;;;;13.07;6.80;;;-0.40;65.40;;;;;;4998271;28;20035;-65
2021/03/07 05:33:17;;;;;;;13.23;7.65;;;-0.40;66.30;;;;;;4999598;28;20041;-64
2021/03/07 05:35:48;;;;;;;11.48;7.40;;;-0.40;65.40;;;;;;5003977;28;20034;-64
2021/03/07 05:38:16;;;;;;;13.52;7.70;;;-0.30;65.50;;;;;;4998227;28;20068;-64
2021/03/07 05:40:44;;;;;;;15.65;8.93;;;-0.30;65.40;;;;;;4997179;28;20042;-64
2021/03/07 05:43:10;;;;;;;13.85;8.80;;;-0.30;65.30;;;;;;4997535;28;20049;-65
2021/03/07 05:45:41;;;;;;;16.70;10.48;;;-0.30;65.40;;;;;;5000977;28;20117;-64
2021/03/07 05:48:11;;;;;;;16.42;10.38;;;-0.30;65.40;;;;;;5000010;28;20037;-64
2021/03/07 05:50:39;;;;;;;13.65;8.68;;;-0.30;65.40;;;;;;4999977;28;20366;-65
2021/03/07 05:53:10;;;;;;;19.90;8.98;;;-0.30;65.40;;;;;;4998115;28;20043;-64
2021/03/07 05:55:36;;;;;;;14.70;8.52;;;-0.20;65.50;;;;;;4999616;28;20034;-64
2021/03/07 05:58:07;;;;;;;13.73;8.18;;;-0.20;65.40;;;;;;4998599;28;20037;-64
2021/03/07 06:00:35;;;;;;;15.27;8.40;;;-0.30;65.40;;;;;;4998054;28;20053;-63
2021/03/07 06:03:05;;;;;;;13.88;7.90;;;-0.20;65.40;;;;;;4996090;28;20030;-64
2021/03/07 06:05:33;;;;;;;14.18;8.52;;;-0.20;65.50;;;;;;4997307;28;20677;-64
2021/03/07 06:07:59;;;;;;;15.82;8.60;;;-0.20;65.50;;;;;;4996184;28;20038;-65
2021/03/07 06:10:30;;;;;;;13.70;7.95;;;-0.20;65.40;;;;;;4994189;28;20042;-64
2021/03/07 06:13:10;;;;;;;13.05;8.18;;;-0.20;65.60;;;;;;4994973;28;20034;-64
2021/03/07 06:15:38;;;;;;;12.55;7.82;;;-0.10;65.70;;;;;;4995141;28;20112;-64
2021/03/07 06:18:20;;;;;;;12.77;7.90;;;-0.20;65.50;;;;;;4994720;28;20529;-64
2021/03/07 06:20:51;;;;;;;13.52;7.63;;;-0.20;66.00;;;;;;4996550;28;20066;-64
2021/03/07 06:23:36;;;;;;;10.82;7.22;;;-0.20;65.60;;;;;;4995832;28;20397;-63
2021/03/07 06:26:10;;;;;;;14.23;7.50;;;-0.20;66.00;;;;;;4996265;28;20034;-63
2021/03/07 06:28:36;;;;;;;14.70;7.53;;;-0.20;65.80;;;;;;4993709;28;20068;-63
2021/03/07 06:31:24;;;;;;;16.98;8.55;;;-0.10;65.80;;;;;;4988360;28;20946;-64
2021/03/07 06:33:56;;;;;;;13.68;7.72;;;-0.10;65.70;;;;;;4993026;28;20034;-64
2021/03/07 06:36:26;;;;;;;11.25;7.10;;;-0.10;65.40;;;;;;4997543;28;20551;-65
2021/03/07 06:38:56;;;;;;;14.90;7.63;;;-0.10;65.30;;;;;;4998892;28;20120;-64
2021/03/07 06:41:25;;;;;;;12.98;8.05;;;-0.10;65.70;;;;;;5001445;28;20563;-64
2021/03/07 06:44:08;;;;;;;12.90;7.40;;;-0.10;65.80;;;;;;5010134;28;22418;-64
2021/03/07 06:46:38;;;;;;;15.75;8.35;;;-0.10;65.80;;;;;;4994942;28;20065;-64
2021/03/07 06:49:09;;;;;;;15.52;8.32;;;-0.10;66.10;;;;;;5001489;28;20041;-64
2021/03/07 06:51:35;;;;;;;17.13;8.55;;;-0.10;66.20;;;;;;5000213;28;20033;-64
2021/03/07 06:54:25;;;;;;;15.13;8.50;;;0.00;66.10;;;;;;5002174;28;20135;-64
2021/03/07 06:56:51;;;;;;;18.85;9.88;;;0.00;66.50;;;;;;4999300;28;20039;-64
2021/03/07 06:59:29;;;;;;;14.85;7.80;;;0.10;66.10;;;;;;5000094;28;20037;-64
2021/03/07 07:01:57;;;;;;;16.63;8.73;;;0.10;66.10;;;;;;4990381;28;20033;-65
2021/03/07 07:04:28;;;;;;;13.32;7.93;;;0.20;65.90;;;;;;4998381;28;20061;-64
2021/03/07 07:07:00;;;;;;;11.27;7.13;;;0.20;65.80;;;;;;5014669;28;20034;-64
2021/03/07 07:09:28;;;;;;;12.55;7.35;;;0.40;65.80;;;;;;4996851;28;20029;-64
2021/03/07 07:11:54;;;;;;;9.68;6.93;;;0.40;65.60;;;;;;4997519;28;20038;-65
2021/03/07 07:14:42;;;;;;;11.35;7.03;;;0.50;65.50;;;;;;4999123;28;20058;-68
2021/03/07 07:17:15;;;;;;;12.77;8.30;;;0.50;65.40;;;;;;4998259;28;20475;-64
2021/03/07 07:19:43;;;;;;;14.02;7.90;;;0.60;65.40;;;;;;5014307;28;20062;-63
2021/03/07 07:22:14;;;;;;;13.32;7.93;;;0.60;65.30;;;;;;4999454;28;20069;-64
2021/03/07 07:24:44;;;;;;;12.65;7.00;;;0.70;65.30;;;;;;4997485;28;20029;-64
2021/03/07 07:27:12;;;;;;;11.60;7.82;;;0.80;65.20;;;;;;4999883;28;20160;-63
2021/03/07 07:29:41;;;;;;;12.98;8.30;;;0.80;65.20;;;;;;4999766;28;20030;-64
2021/03/07 07:32:19;;;;;;;13.55;7.70;;;0.80;65.10;;;;;;5002990;28;20034;-63
2021/03/07 07:34:51;;;;;;;17.55;12.43;;;0.90;65.10;;;;;;4998677;28;20045;-64
2021/03/07 07:37:36;;;;;;;13.77;7.88;;;1.00;65.10;;;;;;4999723;28;20034;-64
2021/03/07 07:40:07;;;;;;;13.18;7.07;;;1.00;65.20;;;;;;4999399;28;20038;-64
2021/03/07 07:42:34;;;;;;;13.18;7.78;;;1.00;65.30;;;;;;4998874;28;20046;-63
2021/03/07 07:45:14;;;;;;;11.93;7.63;;;1.10;64.90;;;;;;4999182;28;20034;-63
2021/03/07 07:47:47;;;;;;;12.02;7.45;;;1.10;64.70;;;;;;4997953;28;20113;-64
2021/03/07 07:50:36;;;;;;;11.48;7.10;;;1.20;64.60;;;;;;4996536;28;20038;-63
2021/03/07 07:53:12;;;;;;;13.85;7.68;;;1.20;64.30;;;;;;4994936;28;20096;-63
2021/03/07 07:55:44;;;;;;;10.65;7.05;;;1.20;65.00;;;;;;4995712;28;20570;-63
2021/03/07 07:58:11;;;;;;;13.60;7.90;;;1.20;64.00;;;;;;4995835;28;20086;-64
2021/03/07 08:00:54;;;;;;;14.70;8.35;;;1.30;64.00;;;;;;4995492;28;20568;-63
2021/03/07 08:03:35;;;;;;;11.48;7.70;;;1.30;64.00;;;;;;4997721;28;20037;-63
2021/03/07 08:06:07;;;;;;;12.57;7.68;;;1.30;63.90;;;;;;4995380;28;20411;-64
2021/03/07 08:08:40;;;;;;;11.27;7.45;;;1.40;63.90;;;;;;4992579;28;22101;-64
2021/03/07 08:11:26;;;;;;;11.32;6.93;;;1.40;63.90;;;;;;4995451;28;20432;-64
2021/03/07 08:14:00;;;;;;;12.57;7.15;;;1.50;63.90;;;;;;4994003;28;20069;-64
2021/03/07 08:16:35;;;;;;;10.43;7.38;;;1.50;63.90;;;;;;4996816;28;20125;-65
2021/03/07 08:19:01;;;;;;;12.00;7.68;;;1.60;63.80;;;;;;4999284;28;20149;-64
2021/03/07 08:21:49;;;;;;;14.48;7.93;;;1.70;63.90;;;;;;5001156;28;20555;-64
2021/03/07 08:24:17;;;;;;;11.85;7.82;;;1.70;63.90;;;;;;4998485;28;20026;-64
2021/03/07 08:26:44;;;;;;;11.35;7.60;;;1.80;63.80;;;;;;5001038;28;20044;-64
2021/03/07 08:29:45;;;;;;;11.63;7.50;;;1.80;63.80;;;;;;5000717;28;20022;-64
2021/03/07 08:32:51;;;;;;;11.50;7.57;;;1.90;63.70;;;;;;5006405;28;20446;-64
2021/03/07 08:35:20;;;;;;;11.98;7.88;;;2.00;63.70;;;;;;5001105;28;20557;-64
2021/03/07 08:38:13;;;;;;;11.75;7.72;;;2.00;63.70;;;;;;5001711;28;20038;-63
2021/03/07 08:40:46;;;;;;;12.88;7.45;;;2.10;63.90;;;;;;5000128;28;20061;-64
2021/03/07 08:43:29;;;;;;;22.52;9.10;;;2.20;63.80;;;;;;5000940;28;20046;-64
2021/03/07 08:46:04;;;;;;;14.07;8.75;;;2.20;63.80;;;;;;5001455;28;20269;-64
2021/03/07 08:48:35;;;;;;;17.02;8.40;;;2.30;63.90;;;;;;5001542;28;20035;-64
2021/03/07 08:51:02;;;;;;;13.68;8.57;;;2.40;64.10;;;;;;4999911;28;20034;-63
2021/03/07 08:53:31;;;;;;;13.38;8.70;;;2.40;64.10;;;;;;5001353;28;20033;-64
2021/03/07 08:55:59;;;;;;;13.23;8.90;;;2.50;64.30;;;;;;5001350;28;20042;-63
2021/03/07 08:58:28;;;;;;;13.43;8.90;;;2.70;64.60;;;;;;4998705;28;20038;-64
2021/03/07 09:00:56;;;;;;;15.02;9.70;;;2.70;64.60;;;;;;5000948;28;20112;-63
2021/03/07 09:03:23;;;;;;;15.40;8.68;;;2.80;64.30;;;;;;5001082;28;20035;-64
2021/03/07 09:05:54;;;;;;;13.63;9.07;;;2.90;64.20;;;;;;5006953;28;20034;-63
2021/03/07 09:08:21;;;;;;;14.13;9.23;;;3.00;64.00;;;;;;5000793;28;20038;-64
2021/03/07 09:10:53;;;;;;;13.20;8.55;;;3.10;64.10;;;;;;4998518;28;20042;-63
2021/03/07 09:13:21;;;;;;;13.13;8.55;;;3.20;64.00;;;;;;4998383;28;20038;-63
2021/03/07 09:15:55;;;;;;;13.27;8.63;;;3.20;64.00;;;;;;5001691;28;20035;-63
2021/03/07 09:18:29;;;;;;;11.63;7.95;;;3.20;64.00;;;;;;5000005;28;20034;-63
2021/03/07 09:21:09;;;;;;;14.63;9.20;;;3.30;64.10;;;;;;5000425;28;20043;-63
2021/03/07 09:23:40;;;;;;;14.02;9.18;;;3.40;64.20;;;;;;5001258;28;20537;-63
2021/03/07 09:26:08;;;;;;;12.45;8.40;;;3.40;64.10;;;;;;5000119;28;20041;-63
2021/03/07 09:28:37;;;;;;;14.13;9.05;;;3.50;64.10;;;;;;4997874;28;20066;-63
2021/03/07 09:31:16;;;;;;;13.02;8.77;;;3.50;64.10;;;;;;4998970;28;20069;-64
2021/03/07 09:33:55;;;;;;;15.25;8.75;;;3.60;64.60;;;;;;5006761;28;20121;-64
2021/03/07 09:36:22;;;;;;;14.60;8.60;;;3.70;64.40;;;;;;4999060;28;20056;-64
2021/03/07 09:38:53;;;;;;;12.57;7.90;;;3.80;64.40;;;;;;5000006;28;20520;-63
2021/03/07 09:41:46;;;;;;;13.70;9.48;;;3.90;64.50;;;;;;5000032;28;20057;-64
2021/03/07 09:44:19;;;;;;;13.88;9.25;;;4.00;64.60;;;;;;4999516;28;20021;-64
2021/03/07 09:46:53;;;;;;;13.68;9.35;;;4.10;64.60;;;;;;4999511;28;20042;-63
2021/03/07 09:49:27;;;;;;;15.13;9.57;;;4.20;64.70;;;;;;5007302;28;20030;-64
2021/03/07 09:51:53;;;;;;;12.52;8.60;;;4.30;64.40;;;;;;5004993;28;20405;-64
2021/03/07 09:54:20;;;;;;;12.05;8.80;;;4.40;64.20;;;;;;5000608;28;20034;-64
2021/03/07 09:56:52;;;;;;;14.80;9.82;;;4.50;64.20;;;;;;4999637;28;20129;-64
2021/03/07 09:59:24;;;;;;;14.00;9.05;;;4.60;64.10;;;;;;5005885;28;20512;-64
2021/03/07 10:01:51;;;;;;;15.52;9.75;;;4.70;64.10;;;;;;4999868;28;20089;-64
2021/03/07 10:04:50;;;;;;;15.75;10.20;;;4.80;64.00;;;;;;4999735;28;20038;-64
2021/03/07 10:07:18;;;;;;;14.25;9.55;;;5.00;63.80;;;;;;4999758;28;20121;-64
2021/03/07 10:10:10;;;;;;;17.80;10.45;;;5.10;63.90;;;;;;5000602;28;20034;-64
2021/03/07 10:12:46;;;;;;;13.73;9.70;;;5.20;63.70;;;;;;4996952;28;20133;-64
2021/03/07 10:15:26;;;;;;;17.92;10.25;;;5.30;63.70;;;;;;4997773;28;20030;-64
2021/03/07 10:17:54;;;;;;;14.43;9.85;;;5.40;63.70;;;;;;4999591;28;20119;-65
2021/03/07 10:20:22;;;;;;;14.88;10.02;;;5.50;63.50;;;;;;4999061;28;20034;-64
2021/03/07 10:22:49;;;;;;;14.52;10.07;;;5.60;63.50;;;;;;4999282;28;20044;-64
2021/03/07 10:25:30;;;;;;;16.20;11.00;;;5.80;63.60;;;;;;4999720;28;20492;-64
2021/03/07 10:28:04;;;;;;;20.20;11.85;;;5.90;63.30;;;;;;4999229;28;20034;-64
2021/03/07 10:30:43;;;;;;;18.13;11.05;;;6.10;63.30;;;;;;4998200;28;20034;-64
2021/03/07 10:33:27;;;;;;;16.90;10.82;;;6.10;63.00;;;;;;5000292;28;20038;-64
2021/03/07 10:36:09;;;;;;;16.10;11.27;;;6.30;62.80;;;;;;4997241;28;20061;-64
2021/03/07 10:38:44;;;;;;;18.50;12.05;;;6.30;62.60;;;;;;4999270;28;20035;-64
2021/03/07 10:41:20;;;;;;;17.85;12.27;;;6.50;62.60;;;;;;5000001;28;20030;-64
2021/03/07 10:43:47;;;;;;;18.20;11.90;;;6.50;62.50;;;;;;4996906;28;20513;-64
2021/03/07 10:46:34;;;;;;;17.92;12.60;;;6.60;62.80;;;;;;4999308;28;20038;-64
2021/03/07 10:49:07;;;;;;;18.15;12.13;;;6.70;62.50;;;;;;5005267;28;20034;-64
2021/03/07 10:51:35;;;;;;;17.17;12.30;;;6.80;62.60;;;;;;4998312;28;20038;-64
2021/03/07 10:54:05;;;;;;;20.55;11.70;;;6.90;62.50;;;;;;4999697;28;20440;-64
2021/03/07 10:56:37;;;;;;;16.85;11.35;;;7.00;63.40;;;;;;4997705;28;20125;-64
2021/03/07 10:59:07;;;;;;;15.95;11.32;;;7.10;62.50;;;;;;4999625;28;20501;-64
2021/03/07 11:01:37;;;;;;;16.42;11.57;;;7.20;62.60;;;;;;4997725;28;20129;-64
2021/03/07 11:04:03;;;;;;;22.08;13.32;;;7.30;62.50;;;;;;4998988;28;20042;-64
2021/03/07 11:06:31;;;;;;;18.02;12.23;;;7.50;62.40;;;;;;4997922;28;20034;-64
2021/03/07 11:08:57;;;;;;;18.30;12.05;;;7.60;62.20;;;;;;4997901;28;20026;-64
2021/03/07 11:11:27;;;;;;;20.08;12.88;;;7.70;62.00;;;;;;4995226;28;20034;-64
2021/03/07 11:13:55;;;;;;;20.85;13.02;;;7.80;62.00;;;;;;4998798;28;20034;-64
2021/03/07 11:16:23;;;;;;;17.27;12.07;;;7.90;61.70;;;;;;4999176;28;20041;-65
2021/03/07 11:18:51;;;;;;;23.50;13.40;;;8.00;61.80;;;;;;4998997;28;20034;-64
2021/03/07 11:21:21;;;;;;;19.02;13.63;;;8.10;61.70;;;;;;4998193;28;20038;-64
2021/03/07 11:23:51;;;;;;;18.50;12.95;;;8.30;61.50;;;;;;4998820;28;20035;-64
2021/03/07 11:26:21;;;;;;;18.85;12.40;;;8.40;61.30;;;;;;4998095;28;20041;-64
2021/03/07 11:28:47;;;;;;;18.35;12.55;;;8.50;61.30;;;;;;4998606;28;20030;-65
2021/03/07 11:31:12;;;;;;;17.50;11.95;;;8.60;61.00;;;;;;4998475;28;20038;-64
2021/03/07 11:33:38;;;;;;;17.55;12.10;;;8.70;61.10;;;;;;4996459;28;20037;-64
2021/03/07 11:36:09;;;;;;;17.23;12.52;;;8.80;61.00;;;;;;4997884;28;20048;-65
2021/03/07 11:38:37;;;;;;;18.85;11.70;;;8.90;60.80;;;;;;4997183;28;20129;-64
2021/03/07 11:41:05;;;;;;;17.05;11.07;;;9.00;60.60;;;;;;5003791;28;20053;-64
2021/03/07 11:43:35;;;;;;;21.08;12.73;;;9.10;60.40;;;;;;4998199;28;20553;-64
2021/03/07 11:46:01;;;;;;;16.52;12.32;;;9.20;59.80;;;;;;4997861;28;20042;-64
2021/03/07 11:48:32;;;;;;;18.27;12.93;;;9.30;59.90;;;;;;4997092;28;20041;-64
2021/03/07 11:50:58;;;;;;;18.85;12.18;;;9.40;59.80;;;;;;4998190;28;20054;-64
2021/03/07 11:53:24;;;;;;;18.58;12.30;;;9.50;60.00;;;;;;5009097;28;20100;-65
2021/03/07 11:55:54;;;;;;;19.83;12.30;;;9.60;60.00;;;;;;5001311;28;20041;-64
2021/03/07 11:58:22;;;;;;;19.63;12.20;;;9.70;59.80;;;;;;5007411;28;20038;-64
2021/03/07 12:00:49;;;;;;;21.83;13.05;;;9.80;59.70;;;;;;5001251;28;20042;-64
2021/03/07 12:03:15;;;;;;;18.60;12.30;;;9.90;59.30;;;;;;5001193;28;20433;-64
2021/03/07 12:05:45;;;;;;;18.75;12.52;;;10.00;59.30;;;;;;5004476;28;20588;-63
2021/03/07 12:08:13;;;;;;;22.92;13.02;;;10.10;58.90;;;;;;5000371;28;20046;-65
2021/03/07 12:10:41;;;;;;;21.67;12.40;;;10.20;58.90;;;;;;4999412;28;20462;-64
2021/03/07 12:13:07;;;;;;;19.48;12.73;;;10.30;58.90;;;;;;5001860;28;20046;-65
2021/03/07 12:15:32;;;;;;;18.75;12.57;;;10.40;58.90;;;;;;4999665;28;20044;-64
2021/03/07 12:17:58;;;;;;;19.98;12.43;;;10.50;58.70;;;;;;5000171;28;20042;-64
2021/03/07 12:20:24;;;;;;;21.55;13.05;;;10.50;58.50;;;;;;5001966;28;20034;-65
2021/03/07 12:22:52;;;;;;;20.45;13.40;;;10.60;58.40;;;;;;5002969;28;20133;-65
2021/03/07 12:25:20;;;;;;;21.85;13.50;;;10.70;57.70;;;;;;4998539;28;20042;-65
2021/03/07 12:27:50;;;;;;;22.20;13.13;;;10.70;58.00;;;;;;4999847;28;20505;-65
2021/03/07 12:30:18;;;;;;;20.70;13.38;;;10.80;58.00;;;;;;5001169;28;20039;-64
2021/03/07 12:32:47;;;;;;;23.02;13.10;;;10.90;58.00;;;;;;4999980;28;20389;-64
2021/03/07 12:35:14;;;;;;;18.30;12.52;;;10.90;58.00;;;;;;5000686;28;20497;-64
2021/03/07 12:37:42;;;;;;;18.92;11.95;;;11.00;57.20;;;;;;4999474;28;20077;-64
2021/03/07 12:40:08;;;;;;;17.67;11.35;;;11.10;57.60;;;;;;5001136;28;20644;-64
2021/03/07 12:42:36;;;;;;;19.38;11.85;;;11.10;57.60;;;;;;5000174;28;20685;-64
2021/03/07 12:45:02;;;;;;;17.17;11.80;;;11.20;57.10;;;;;;4999365;28;20049;-65
2021/03/07 12:47:27;;;;;;;21.27;12.18;;;11.30;57.40;;;;;;4998925;28;20057;-64
2021/03/07 12:49:58;;;;;;;18.92;11.15;;;11.40;57.30;;;;;;5016966;28;20073;-64
2021/03/07 12:52:26;;;;;;;19.92;12.07;;;11.50;56.90;;;;;;5003831;28;20038;-64
2021/03/07 12:54:51;;;;;;;18.75;10.30;;;11.60;57.00;;;;;;5001393;28;20065;-64
2021/03/07 12:57:17;;;;;;;17.00;11.10;;;11.70;56.70;;;;;;5002272;28;20076;-64
2021/03/07 12:59:45;;;;;;;16.75;10.25;;;11.80;56.70;;;;;;5001899;28;20034;-65